Milo, Oklahoma
Current Conditions -  °F | °C
As of 3:55 PM on Saturday 25 Oct 2014 (Local Time) from K1F0 Reporting Station
Clear Clear  
Wind Chill: 88°   Ceiling: Unl
Heat Index: 88°   Visibility: 10mi
Dew Point: 54°   Wind: 5mph
Humidity: 31%   Direction: 230°SW
Pressure: 30.05"   Gusts: NA
Location:  34.2137°N, 97.1822°W
Report Text: K1F0 252055Z AUTO 23004KT 10SM CLR 31/12 A3005 RMK AO2
Loading
Personal Weather Stations






























Interactive Weather Map
Tropical Storm Tracking
New forecast layout! Learn more

10-Day Weather Forecast

Advertisements
Track Severe Weather on mobile